sensor_id;sensor_type;location;lat;lon;timestamp;P1;durP1;ratioP1;P2;durP2;ratioP2
7211;SDS011;3647;48.792;9.802;2023-09-08T08:32:24;5.45;;;4.03;;
7211;SDS011;3647;48.792;9.802;2023-09-08T08:34:51;6.18;;;4.35;;
7211;SDS011;3647;48.792;9.802;2023-09-08T08:37:17;5.53;;;3.90;;
7211;SDS011;3647;48.792;9.802;2023-09-08T08:39:44;6.57;;;4.03;;
7211;SDS011;3647;48.792;9.802;2023-09-08T08:42:11;4.80;;;3.90;;
7211;SDS011;3647;48.792;9.802;2023-09-08T08:44:38;6.82;;;3.83;;
7211;SDS011;3647;48.792;9.802;2023-09-08T08:47:06;4.25;;;3.70;;
7211;SDS011;3647;48.792;9.802;2023-09-08T08:49:34;4.28;;;3.75;;
7211;SDS011;3647;48.792;9.802;2023-09-08T08:52:04;5.63;;;3.63;;
7211;SDS011;3647;48.792;9.802;2023-09-08T08:54:34;3.58;;;3.28;;
7211;SDS011;3647;48.792;9.802;2023-09-08T08:57:03;4.25;;;3.85;;
7211;SDS011;3647;48.792;9.802;2023-09-08T08:59:31;4.95;;;3.83;;
7211;SDS011;3647;48.792;9.802;2023-09-08T09:01:58;5.38;;;3.90;;
7211;SDS011;3647;48.792;9.802;2023-09-08T09:04:25;4.20;;;3.80;;
7211;SDS011;3647;48.792;9.802;2023-09-08T09:06:53;4.53;;;3.80;;
7211;SDS011;3647;48.792;9.802;2023-09-08T09:09:20;4.35;;;3.70;;
7211;SDS011;3647;48.792;9.802;2023-09-08T09:11:48;4.53;;;4.05;;
7211;SDS011;3647;48.792;9.802;2023-09-08T09:14:15;5.25;;;4.00;;
7211;SDS011;3647;48.792;9.802;2023-09-08T09:16:44;5.90;;;4.03;;
7211;SDS011;3647;48.792;9.802;2023-09-08T09:19:17;4.00;;;3.33;;
7211;SDS011;3647;48.792;9.802;2023-09-08T09:21:50;5.05;;;4.15;;
7211;SDS011;3647;48.792;9.802;2023-09-08T09:24:29;4.13;;;3.40;;
7211;SDS011;3647;48.792;9.802;2023-09-08T09:26:57;4.47;;;3.60;;
7211;SDS011;3647;48.792;9.802;2023-09-08T09:29:24;6.65;;;4.90;;
7211;SDS011;3647;48.792;9.802;2023-09-08T09:31:51;3.92;;;3.53;;
7211;SDS011;3647;48.792;9.802;2023-09-08T09:34:20;4.13;;;3.70;;
7211;SDS011;3647;48.792;9.802;2023-09-08T09:36:48;3.70;;;3.40;;
7211;SDS011;3647;48.792;9.802;2023-09-08T09:39:18;4.38;;;3.50;;
7211;SDS011;3647;48.792;9.802;2023-09-08T09:41:47;5.65;;;3.97;;
7211;SDS011;3647;48.792;9.802;2023-09-08T09:44:15;4.75;;;3.55;;
7211;SDS011;3647;48.792;9.802;2023-09-08T09:46:45;4.28;;;3.58;;
7211;SDS011;3647;48.792;9.802;2023-09-08T09:49:12;4.57;;;4.15;;
7211;SDS011;3647;48.792;9.802;2023-09-08T09:51:40;4.70;;;3.97;;
7211;SDS011;3647;48.792;9.802;2023-09-08T09:54:08;4.65;;;3.95;;
7211;SDS011;3647;48.792;9.802;2023-09-08T09:56:35;4.50;;;3.40;;
7211;SDS011;3647;48.792;9.802;2023-09-08T09:59:06;4.20;;;3.50;;
7211;SDS011;3647;48.792;9.802;2023-09-08T10:01:34;4.63;;;3.55;;
7211;SDS011;3647;48.792;9.802;2023-09-08T10:04:01;5.72;;;3.78;;
7211;SDS011;3647;48.792;9.802;2023-09-08T10:06:30;4.25;;;3.85;;
7211;SDS011;3647;48.792;9.802;2023-09-08T10:08:58;4.10;;;3.58;;
7211;SDS011;3647;48.792;9.802;2023-09-08T10:11:28;5.38;;;4.25;;
7211;SDS011;3647;48.792;9.802;2023-09-08T10:13:57;3.42;;;3.10;;
7211;SDS011;3647;48.792;9.802;2023-09-08T10:16:27;4.13;;;3.58;;
7211;SDS011;3647;48.792;9.802;2023-09-08T10:18:56;3.85;;;3.38;;
7211;SDS011;3647;48.792;9.802;2023-09-08T10:21:26;6.40;;;3.75;;
7211;SDS011;3647;48.792;9.802;2023-09-08T10:23:57;4.00;;;3.50;;
7211;SDS011;3647;48.792;9.802;2023-09-08T10:26:29;3.92;;;3.10;;
7211;SDS011;3647;48.792;9.802;2023-09-08T10:28:59;4.78;;;4.00;;
7211;SDS011;3647;48.792;9.802;2023-09-08T10:31:29;4.20;;;3.80;;
7211;SDS011;3647;48.792;9.802;2023-09-08T10:33:56;3.88;;;3.15;;
7211;SDS011;3647;48.792;9.802;2023-09-08T10:36:24;3.55;;;3.25;;
7211;SDS011;3647;48.792;9.802;2023-09-08T10:38:51;6.75;;;3.60;;
7211;SDS011;3647;48.792;9.802;2023-09-08T10:41:26;5.00;;;3.35;;
7211;SDS011;3647;48.792;9.802;2023-09-08T10:43:57;4.18;;;3.72;;
7211;SDS011;3647;48.792;9.802;2023-09-08T10:46:30;4.03;;;3.60;;
7211;SDS011;3647;48.792;9.802;2023-09-08T10:49:01;4.43;;;4.03;;
7211;SDS011;3647;48.792;9.802;2023-09-08T10:51:29;3.70;;;3.38;;
7211;SDS011;3647;48.792;9.802;2023-09-08T10:53:56;3.70;;;3.40;;
7211;SDS011;3647;48.792;9.802;2023-09-08T10:56:26;4.55;;;3.60;;
7211;SDS011;3647;48.792;9.802;2023-09-08T10:58:54;4.00;;;3.63;;
7211;SDS011;3647;48.792;9.802;2023-09-08T11:01:21;4.95;;;3.60;;
7211;SDS011;3647;48.792;9.802;2023-09-08T11:03:53;4.05;;;3.65;;
7211;SDS011;3647;48.792;9.802;2023-09-08T11:06:20;4.50;;;3.90;;
7211;SDS011;3647;48.792;9.802;2023-09-08T11:08:48;5.07;;;4.05;;
7211;SDS011;3647;48.792;9.802;2023-09-08T11:11:18;3.83;;;3.45;;
7211;SDS011;3647;48.792;9.802;2023-09-08T11:13:45;4.25;;;3.85;;
7211;SDS011;3647;48.792;9.802;2023-09-08T11:16:13;4.90;;;3.72;;
7211;SDS011;3647;48.792;9.802;2023-09-08T11:18:40;4.72;;;3.40;;
7211;SDS011;3647;48.792;9.802;2023-09-08T11:21:09;5.97;;;4.00;;
7211;SDS011;3647;48.792;9.802;2023-09-08T11:23:36;5.07;;;4.28;;
7211;SDS011;3647;48.792;9.802;2023-09-08T11:26:03;4.20;;;3.33;;
7211;SDS011;3647;48.792;9.802;2023-09-08T11:28:31;7.03;;;4.00;;
7211;SDS011;3647;48.792;9.802;2023-09-08T11:30:58;4.50;;;3.60;;
7211;SDS011;3647;48.792;9.802;2023-09-08T11:33:25;4.13;;;3.70;;
7211;SDS011;3647;48.792;9.802;2023-09-08T11:35:52;4.20;;;3.75;;
7211;SDS011;3647;48.792;9.802;2023-09-08T11:38:25;4.45;;;3.97;;
7211;SDS011;3647;48.792;9.802;2023-09-08T11:40:52;3.63;;;3.28;;
7211;SDS011;3647;48.792;9.802;2023-09-08T11:43:19;4.88;;;3.88;;
7211;SDS011;3647;48.792;9.802;2023-09-08T11:45:46;3.60;;;3.30;;
7211;SDS011;3647;48.792;9.802;2023-09-08T11:48:13;4.30;;;3.67;;
7211;SDS011;3647;48.792;9.802;2023-09-08T11:50:40;4.13;;;3.60;;
7211;SDS011;3647;48.792;9.802;2023-09-08T11:53:08;4.35;;;3.53;;
7211;SDS011;3647;48.792;9.802;2023-09-08T11:55:37;4.45;;;3.13;;
7211;SDS011;3647;48.792;9.802;2023-09-08T11:58:04;5.40;;;4.05;;
7211;SDS011;3647;48.792;9.802;2023-09-08T12:00:31;4.05;;;3.60;;
7211;SDS011;3647;48.792;9.802;2023-09-08T12:03:09;4.38;;;3.85;;
7211;SDS011;3647;48.792;9.802;2023-09-08T12:05:37;4.22;;;3.78;;
7211;SDS011;3647;48.792;9.802;2023-09-08T12:08:04;3.47;;;3.17;;
7211;SDS011;3647;48.792;9.802;2023-09-08T12:10:38;4.00;;;3.70;;
7211;SDS011;3647;48.792;9.802;2023-09-08T12:13:06;4.30;;;3.90;;
7211;SDS011;3647;48.792;9.802;2023-09-08T12:15:34;5.13;;;3.70;;
7211;SDS011;3647;48.792;9.802;2023-09-08T12:18:02;4.32;;;3.85;;
7211;SDS011;3647;48.792;9.802;2023-09-08T12:20:30;3.53;;;3.22;;
7211;SDS011;3647;48.792;9.802;2023-09-08T12:22:59;5.38;;;3.90;;
7211;SDS011;3647;48.792;9.802;2023-09-08T12:25:27;3.85;;;3.45;;
7211;SDS011;3647;48.792;9.802;2023-09-08T12:27:57;4.00;;;3.60;;
7211;SDS011;3647;48.792;9.802;2023-09-08T12:30:25;4.28;;;3.50;;
7211;SDS011;3647;48.792;9.802;2023-09-08T12:32:57;4.72;;;3.95;;
7211;SDS011;3647;48.792;9.802;2023-09-08T12:35:25;4.72;;;4.05;;
7211;SDS011;3647;48.792;9.802;2023-09-08T12:37:53;4.13;;;3.40;;
7211;SDS011;3647;48.792;9.802;2023-09-08T12:40:24;3.67;;;3.22;;
7211;SDS011;3647;48.792;9.802;2023-09-08T12:42:51;3.95;;;3.60;;
7211;SDS011;3647;48.792;9.802;2023-09-08T12:45:19;3.60;;;3.30;;
7211;SDS011;3647;48.792;9.802;2023-09-08T12:47:47;4.45;;;3.53;;
7211;SDS011;3647;48.792;9.802;2023-09-08T12:50:14;4.10;;;3.00;;
7211;SDS011;3647;48.792;9.802;2023-09-08T12:52:40;3.72;;;3.42;;
7211;SDS011;3647;48.792;9.802;2023-09-08T12:55:07;3.70;;;3.40;;
7211;SDS011;3647;48.792;9.802;2023-09-08T12:57:34;6.28;;;4.07;;
7211;SDS011;3647;48.792;9.802;2023-09-08T13:00:02;4.22;;;3.83;;
7211;SDS011;3647;48.792;9.802;2023-09-08T13:02:31;4.78;;;3.45;;
7211;SDS011;3647;48.792;9.802;2023-09-08T13:04:58;4.22;;;3.55;;
7211;SDS011;3647;48.792;9.802;2023-09-08T13:07:25;4.55;;;3.58;;
7211;SDS011;3647;48.792;9.802;2023-09-08T13:09:53;4.00;;;3.60;;
7211;SDS011;3647;48.792;9.802;2023-09-08T13:12:19;5.13;;;3.88;;
7211;SDS011;3647;48.792;9.802;2023-09-08T13:14:46;4.72;;;3.60;;
7211;SDS011;3647;48.792;9.802;2023-09-08T13:17:14;7.80;;;3.92;;
7211;SDS011;3647;48.792;9.802;2023-09-08T13:19:42;4.80;;;4.30;;
7211;SDS011;3647;48.792;9.802;2023-09-08T13:22:10;4.10;;;3.60;;
7211;SDS011;3647;48.792;9.802;2023-09-08T13:24:37;5.07;;;3.92;;
7211;SDS011;3647;48.792;9.802;2023-09-08T13:27:04;4.10;;;3.70;;
7211;SDS011;3647;48.792;9.802;2023-09-08T13:29:31;4.43;;;4.00;;
7211;SDS011;3647;48.792;9.802;2023-09-08T13:31:58;4.40;;;3.60;;
7211;SDS011;3647;48.792;9.802;2023-09-08T13:34:25;3.92;;;3.53;;
7211;SDS011;3647;48.792;9.802;2023-09-08T13:36:53;7.20;;;3.70;;
7211;SDS011;3647;48.792;9.802;2023-09-08T13:39:19;4.85;;;3.90;;
7211;SDS011;3647;48.792;9.802;2023-09-08T13:41:47;4.35;;;3.60;;
7211;SDS011;3647;48.792;9.802;2023-09-08T13:44:15;5.22;;;3.88;;
7211;SDS011;3647;48.792;9.802;2023-09-08T13:46:43;5.30;;;3.78;;
7211;SDS011;3647;48.792;9.802;2023-09-08T13:49:09;4.78;;;3.80;;
7211;SDS011;3647;48.792;9.802;2023-09-08T13:51:37;4.18;;;3.78;;
7211;SDS011;3647;48.792;9.802;2023-09-08T13:54:05;4.80;;;4.22;;
7211;SDS011;3647;48.792;9.802;2023-09-08T13:56:32;4.25;;;3.85;;
7211;SDS011;3647;48.792;9.802;2023-09-08T13:58:58;3.90;;;3.50;;
7211;SDS011;3647;48.792;9.802;2023-09-08T14:01:26;6.20;;;3.80;;
7211;SDS011;3647;48.792;9.802;2023-09-08T14:03:54;4.57;;;4.13;;
7211;SDS011;3647;48.792;9.802;2023-09-08T14:06:21;6.00;;;4.72;;
7211;SDS011;3647;48.792;9.802;2023-09-08T14:08:48;4.38;;;3.80;;
7211;SDS011;3647;48.792;9.802;2023-09-08T14:11:16;5.03;;;3.97;;
7211;SDS011;3647;48.792;9.802;2023-09-08T14:13:43;4.07;;;3.55;;
7211;SDS011;3647;48.792;9.802;2023-09-08T14:16:10;4.28;;;3.88;;
7211;SDS011;3647;48.792;9.802;2023-09-08T14:18:37;4.63;;;3.83;;
7211;SDS011;3647;48.792;9.802;2023-09-08T14:21:04;3.92;;;3.40;;
7211;SDS011;3647;48.792;9.802;2023-09-08T14:23:31;4.40;;;4.00;;
7211;SDS011;3647;48.792;9.802;2023-09-08T14:25:59;4.65;;;3.95;;
7211;SDS011;3647;48.792;9.802;2023-09-08T14:28:27;3.78;;;3.47;;
7211;SDS011;3647;48.792;9.802;2023-09-08T14:30:54;4.93;;;4.30;;
7211;SDS011;3647;48.792;9.802;2023-09-08T14:33:21;4.75;;;4.22;;
7211;SDS011;3647;48.792;9.802;2023-09-08T14:35:48;5.22;;;4.10;;
7211;SDS011;3647;48.792;9.802;2023-09-08T14:38:16;3.90;;;3.50;;
7211;SDS011;3647;48.792;9.802;2023-09-08T14:40:43;5.47;;;3.60;;
7211;SDS011;3647;48.792;9.802;2023-09-08T14:43:11;4.25;;;3.85;;
7211;SDS011;3647;48.792;9.802;2023-09-08T14:45:39;5.03;;;3.60;;
7211;SDS011;3647;48.792;9.802;2023-09-08T14:48:06;5.20;;;3.63;;
7211;SDS011;3647;48.792;9.802;2023-09-08T14:50:33;3.88;;;3.50;;
7211;SDS011;3647;48.792;9.802;2023-09-08T14:52:59;5.97;;;4.03;;
7211;SDS011;3647;48.792;9.802;2023-09-08T14:55:26;5.50;;;3.40;;
7211;SDS011;3647;48.792;9.802;2023-09-08T14:57:53;4.25;;;3.80;;
7211;SDS011;3647;48.792;9.802;2023-09-08T15:00:20;3.70;;;3.28;;
7211;SDS011;3647;48.792;9.802;2023-09-08T15:02:49;4.13;;;3.72;;
7211;SDS011;3647;48.792;9.802;2023-09-08T15:05:16;4.15;;;3.72;;
7211;SDS011;3647;48.792;9.802;2023-09-08T15:07:43;4.65;;;3.70;;
7211;SDS011;3647;48.792;9.802;2023-09-08T15:10:10;4.00;;;3.35;;
7211;SDS011;3647;48.792;9.802;2023-09-08T15:12:37;6.60;;;3.75;;
7211;SDS011;3647;48.792;9.802;2023-09-08T15:15:04;6.80;;;3.78;;
7211;SDS011;3647;48.792;9.802;2023-09-08T15:17:31;4.15;;;3.72;;
7211;SDS011;3647;48.792;9.802;2023-09-08T15:19:59;4.50;;;3.60;;
7211;SDS011;3647;48.792;9.802;2023-09-08T15:22:27;4.32;;;3.70;;
7211;SDS011;3647;48.792;9.802;2023-09-08T15:24:53;5.68;;;4.18;;
7211;SDS011;3647;48.792;9.802;2023-09-08T15:27:20;5.55;;;3.63;;
7211;SDS011;3647;48.792;9.802;2023-09-08T15:29:47;4.53;;;4.05;;
7211;SDS011;3647;48.792;9.802;2023-09-08T15:32:14;6.00;;;3.53;;
7211;SDS011;3647;48.792;9.802;2023-09-08T15:34:41;4.80;;;3.30;;
7211;SDS011;3647;48.792;9.802;2023-09-08T15:37:13;4.15;;;3.75;;
7211;SDS011;3647;48.792;9.802;2023-09-08T15:39:40;4.10;;;3.58;;
7211;SDS011;3647;48.792;9.802;2023-09-08T15:42:06;4.70;;;3.53;;
7211;SDS011;3647;48.792;9.802;2023-09-08T15:44:33;6.25;;;3.80;;
7211;SDS011;3647;48.792;9.802;2023-09-08T15:47:00;4.65;;;4.25;;
7211;SDS011;3647;48.792;9.802;2023-09-08T15:49:26;6.95;;;3.95;;
7211;SDS011;3647;48.792;9.802;2023-09-08T15:51:53;5.00;;;3.40;;
7211;SDS011;3647;48.792;9.802;2023-09-08T15:54:22;4.00;;;3.45;;
7211;SDS011;3647;48.792;9.802;2023-09-08T15:56:48;3.85;;;3.50;;
7211;SDS011;3647;48.792;9.802;2023-09-08T15:59:15;4.53;;;3.88;;
7211;SDS011;3647;48.792;9.802;2023-09-08T16:01:42;4.10;;;3.70;;
7211;SDS011;3647;48.792;9.802;2023-09-08T16:04:08;4.40;;;4.00;;
7211;SDS011;3647;48.792;9.802;2023-09-08T16:06:35;4.43;;;4.03;;
7211;SDS011;3647;48.792;9.802;2023-09-08T16:09:02;4.38;;;3.97;;
7211;SDS011;3647;48.792;9.802;2023-09-08T16:11:32;3.95;;;3.55;;
7211;SDS011;3647;48.792;9.802;2023-09-08T16:13:59;7.68;;;3.90;;
7211;SDS011;3647;48.792;9.802;2023-09-08T16:16:25;4.13;;;3.67;;
7211;SDS011;3647;48.792;9.802;2023-09-08T16:18:52;6.50;;;3.92;;
7211;SDS011;3647;48.792;9.802;2023-09-08T16:21:19;4.38;;;3.97;;
7211;SDS011;3647;48.792;9.802;2023-09-08T16:23:46;4.72;;;4.25;;
7211;SDS011;3647;48.792;9.802;2023-09-08T16:26:12;5.07;;;4.18;;
7211;SDS011;3647;48.792;9.802;2023-09-08T16:28:40;4.32;;;3.92;;
7211;SDS011;3647;48.792;9.802;2023-09-08T16:31:07;5.78;;;4.13;;
7211;SDS011;3647;48.792;9.802;2023-09-08T16:33:34;4.40;;;4.00;;
7211;SDS011;3647;48.792;9.802;2023-09-08T16:36:01;5.07;;;4.18;;
7211;SDS011;3647;48.792;9.802;2023-09-08T16:38:28;4.50;;;4.10;;
7211;SDS011;3647;48.792;9.802;2023-09-08T16:40:55;5.22;;;4.63;;
7211;SDS011;3647;48.792;9.802;2023-09-08T16:43:22;5.38;;;4.10;;
7211;SDS011;3647;48.792;9.802;2023-09-08T16:45:51;5.57;;;4.28;;
7211;SDS011;3647;48.792;9.802;2023-09-08T16:48:17;5.25;;;4.28;;
7211;SDS011;3647;48.792;9.802;2023-09-08T16:50:45;4.32;;;3.92;;
7211;SDS011;3647;48.792;9.802;2023-09-08T16:53:12;5.00;;;4.20;;
7211;SDS011;3647;48.792;9.802;2023-09-08T16:55:39;4.50;;;4.07;;
7211;SDS011;3647;48.792;9.802;2023-09-08T16:58:06;4.55;;;4.03;;
7211;SDS011;3647;48.792;9.802;2023-09-08T17:00:32;4.85;;;4.20;;
7211;SDS011;3647;48.792;9.802;2023-09-08T17:03:01;5.90;;;4.03;;
7211;SDS011;3647;48.792;9.802;2023-09-08T17:05:27;5.78;;;4.55;;
7211;SDS011;3647;48.792;9.802;2023-09-08T17:07:54;6.32;;;4.45;;
7211;SDS011;3647;48.792;9.802;2023-09-08T17:10:21;4.60;;;4.20;;
7211;SDS011;3647;48.792;9.802;2023-09-08T17:12:48;6.38;;;4.05;;
7211;SDS011;3647;48.792;9.802;2023-09-08T17:15:15;5.50;;;4.32;;
7211;SDS011;3647;48.792;9.802;2023-09-08T17:17:42;5.53;;;4.22;;
7211;SDS011;3647;48.792;9.802;2023-09-08T17:20:11;4.43;;;3.80;;
7211;SDS011;3647;48.792;9.802;2023-09-08T17:22:38;6.15;;;4.00;;
7211;SDS011;3647;48.792;9.802;2023-09-08T17:25:05;6.03;;;4.10;;
7211;SDS011;3647;48.792;9.802;2023-09-08T17:27:32;4.55;;;3.65;;
7211;SDS011;3647;48.792;9.802;2023-09-08T17:29:59;4.75;;;4.07;;
7211;SDS011;3647;48.792;9.802;2023-09-08T17:32:26;4.60;;;4.15;;
7211;SDS011;3647;48.792;9.802;2023-09-08T17:34:52;3.97;;;3.55;;
7211;SDS011;3647;48.792;9.802;2023-09-08T17:37:21;6.95;;;4.30;;
7211;SDS011;3647;48.792;9.802;2023-09-08T17:39:47;5.57;;;4.45;;
7211;SDS011;3647;48.792;9.802;2023-09-08T17:42:14;4.65;;;4.03;;
7211;SDS011;3647;48.792;9.802;2023-09-08T17:44:41;5.40;;;4.32;;
7211;SDS011;3647;48.792;9.802;2023-09-08T17:47:08;4.25;;;3.78;;
7211;SDS011;3647;48.792;9.802;2023-09-08T17:49:35;4.72;;;3.78;;
7211;SDS011;3647;48.792;9.802;2023-09-08T17:52:02;7.57;;;4.07;;
7211;SDS011;3647;48.792;9.802;2023-09-08T17:54:30;4.72;;;3.83;;
7211;SDS011;3647;48.792;9.802;2023-09-08T17:56:57;4.38;;;3.83;;
7211;SDS011;3647;48.792;9.802;2023-09-08T17:59:24;6.72;;;4.10;;
7211;SDS011;3647;48.792;9.802;2023-09-08T18:01:51;6.63;;;4.63;;
7211;SDS011;3647;48.792;9.802;2023-09-08T18:04:18;4.35;;;3.78;;
7211;SDS011;3647;48.792;9.802;2023-09-08T18:06:45;4.90;;;4.40;;
7211;SDS011;3647;48.792;9.802;2023-09-08T18:09:11;4.75;;;4.25;;
7211;SDS011;3647;48.792;9.802;2023-09-08T18:11:40;4.85;;;4.22;;
7211;SDS011;3647;48.792;9.802;2023-09-08T18:14:06;6.68;;;4.15;;
7211;SDS011;3647;48.792;9.802;2023-09-08T18:16:33;6.28;;;4.18;;
7211;SDS011;3647;48.792;9.802;2023-09-08T18:19:00;5.95;;;4.22;;
7211;SDS011;3647;48.792;9.802;2023-09-08T18:21:27;7.57;;;4.68;;
7211;SDS011;3647;48.792;9.802;2023-09-08T18:23:54;5.78;;;4.65;;
7211;SDS011;3647;48.792;9.802;2023-09-08T18:26:21;7.50;;;4.80;;
7211;SDS011;3647;48.792;9.802;2023-09-08T18:28:49;7.50;;;5.13;;
7211;SDS011;3647;48.792;9.802;2023-09-08T18:31:14;6.63;;;4.57;;
7211;SDS011;3647;48.792;9.802;2023-09-08T18:33:41;5.88;;;4.38;;
7211;SDS011;3647;48.792;9.802;2023-09-08T18:36:08;5.00;;;4.50;;
7211;SDS011;3647;48.792;9.802;2023-09-08T18:38:35;4.88;;;4.20;;
7211;SDS011;3647;48.792;9.802;2023-09-08T18:41:01;5.15;;;4.65;;
7211;SDS011;3647;48.792;9.802;2023-09-08T18:43:28;5.18;;;4.68;;
7211;SDS011;3647;48.792;9.802;2023-09-08T18:45:56;5.75;;;4.63;;
7211;SDS011;3647;48.792;9.802;2023-09-08T18:48:23;5.53;;;4.43;;
7211;SDS011;3647;48.792;9.802;2023-09-08T18:50:50;7.13;;;5.30;;
7211;SDS011;3647;48.792;9.802;2023-09-08T18:53:17;6.40;;;5.45;;
7211;SDS011;3647;48.792;9.802;2023-09-08T18:55:44;6.82;;;4.97;;
7211;SDS011;3647;48.792;9.802;2023-09-08T18:58:11;5.63;;;5.00;;
7211;SDS011;3647;48.792;9.802;2023-09-08T19:00:41;6.10;;;5.22;;
7211;SDS011;3647;48.792;9.802;2023-09-08T19:03:10;6.35;;;4.97;;
7211;SDS011;3647;48.792;9.802;2023-09-08T19:05:37;6.90;;;5.30;;
7211;SDS011;3647;48.792;9.802;2023-09-08T19:08:05;7.10;;;5.07;;
7211;SDS011;3647;48.792;9.802;2023-09-08T19:10:32;6.55;;;5.00;;
7211;SDS011;3647;48.792;9.802;2023-09-08T19:12:59;5.75;;;4.72;;
7211;SDS011;3647;48.792;9.802;2023-09-08T19:15:26;5.43;;;4.93;;
7211;SDS011;3647;48.792;9.802;2023-09-08T19:17:53;8.32;;;5.63;;
7211;SDS011;3647;48.792;9.802;2023-09-08T19:20:21;7.72;;;5.50;;
7211;SDS011;3647;48.792;9.802;2023-09-08T19:22:48;5.30;;;4.80;;
7211;SDS011;3647;48.792;9.802;2023-09-08T19:25:14;5.85;;;4.53;;
7211;SDS011;3647;48.792;9.802;2023-09-08T19:27:41;6.50;;;5.50;;
7211;SDS011;3647;48.792;9.802;2023-09-08T19:30:08;5.57;;;5.05;;
7211;SDS011;3647;48.792;9.802;2023-09-08T19:32:36;6.43;;;5.50;;
7211;SDS011;3647;48.792;9.802;2023-09-08T19:35:04;7.43;;;5.90;;
7211;SDS011;3647;48.792;9.802;2023-09-08T19:37:33;6.10;;;5.20;;
7211;SDS011;3647;48.792;9.802;2023-09-08T19:40:00;5.82;;;5.05;;
7211;SDS011;3647;48.792;9.802;2023-09-08T19:42:27;8.05;;;6.07;;
7211;SDS011;3647;48.792;9.802;2023-09-08T19:44:54;8.30;;;5.95;;
7211;SDS011;3647;48.792;9.802;2023-09-08T19:47:20;6.20;;;5.38;;
7211;SDS011;3647;48.792;9.802;2023-09-08T19:49:47;7.45;;;5.65;;
7211;SDS011;3647;48.792;9.802;2023-09-08T19:52:14;6.63;;;5.90;;
7211;SDS011;3647;48.792;9.802;2023-09-08T19:54:43;7.80;;;5.85;;
7211;SDS011;3647;48.792;9.802;2023-09-08T19:57:10;7.25;;;5.80;;
7211;SDS011;3647;48.792;9.802;2023-09-08T19:59:37;7.78;;;5.93;;
7211;SDS011;3647;48.792;9.802;2023-09-08T20:02:05;7.55;;;5.82;;
7211;SDS011;3647;48.792;9.802;2023-09-08T20:04:32;7.85;;;6.68;;
7211;SDS011;3647;48.792;9.802;2023-09-08T20:06:59;9.07;;;5.93;;
7211;SDS011;3647;48.792;9.802;2023-09-08T20:09:25;7.93;;;5.65;;
7211;SDS011;3647;48.792;9.802;2023-09-08T20:11:54;8.98;;;5.80;;
7211;SDS011;3647;48.792;9.802;2023-09-08T20:14:20;7.93;;;6.05;;
7211;SDS011;3647;48.792;9.802;2023-09-08T20:16:47;7.68;;;6.18;;
7211;SDS011;3647;48.792;9.802;2023-09-08T20:19:14;8.25;;;7.30;;
7211;SDS011;3647;48.792;9.802;2023-09-08T20:21:41;10.23;;;7.32;;
7211;SDS011;3647;48.792;9.802;2023-09-08T20:24:08;9.20;;;6.72;;
7211;SDS011;3647;48.792;9.802;2023-09-08T20:26:35;7.93;;;6.50;;
7211;SDS011;3647;48.792;9.802;2023-09-08T20:29:03;8.50;;;6.60;;
7211;SDS011;3647;48.792;9.802;2023-09-08T20:31:30;8.55;;;6.68;;
7211;SDS011;3647;48.792;9.802;2023-09-08T20:33:57;9.65;;;6.85;;
7211;SDS011;3647;48.792;9.802;2023-09-08T20:36:23;9.13;;;6.70;;
7211;SDS011;3647;48.792;9.802;2023-09-08T20:38:50;9.88;;;7.07;;
7211;SDS011;3647;48.792;9.802;2023-09-08T20:41:17;9.15;;;7.63;;
7211;SDS011;3647;48.792;9.802;2023-09-08T20:43:44;8.55;;;6.53;;
7211;SDS011;3647;48.792;9.802;2023-09-08T20:46:12;8.18;;;6.47;;
7211;SDS011;3647;48.792;9.802;2023-09-08T20:48:39;8.02;;;6.35;;
7211;SDS011;3647;48.792;9.802;2023-09-08T20:51:06;10.27;;;6.93;;
7211;SDS011;3647;48.792;9.802;2023-09-08T20:53:34;9.90;;;7.35;;
7211;SDS011;3647;48.792;9.802;2023-09-08T20:56:02;7.22;;;6.20;;
7211;SDS011;3647;48.792;9.802;2023-09-08T20:58:31;8.50;;;6.68;;
7211;SDS011;3647;48.792;9.802;2023-09-08T21:00:59;8.88;;;6.65;;
7211;SDS011;3647;48.792;9.802;2023-09-08T21:03:29;8.52;;;7.00;;
7211;SDS011;3647;48.792;9.802;2023-09-08T21:05:58;8.77;;;6.85;;
7211;SDS011;3647;48.792;9.802;2023-09-08T21:08:25;8.50;;;6.45;;
7211;SDS011;3647;48.792;9.802;2023-09-08T21:10:54;7.90;;;6.97;;
7211;SDS011;3647;48.792;9.802;2023-09-08T21:13:22;8.85;;;7.07;;
7211;SDS011;3647;48.792;9.802;2023-09-08T21:15:49;7.85;;;6.60;;
7211;SDS011;3647;48.792;9.802;2023-09-08T21:18:16;7.38;;;6.68;;
7211;SDS011;3647;48.792;9.802;2023-09-08T21:20:44;8.13;;;6.85;;
7211;SDS011;3647;48.792;9.802;2023-09-08T21:23:12;8.55;;;6.85;;
7211;SDS011;3647;48.792;9.802;2023-09-08T21:25:38;8.55;;;7.18;;
7211;SDS011;3647;48.792;9.802;2023-09-08T21:28:05;10.43;;;6.97;;
7211;SDS011;3647;48.792;9.802;2023-09-08T21:30:32;8.48;;;6.82;;
7211;SDS011;3647;48.792;9.802;2023-09-08T21:32:59;8.35;;;6.88;;
7211;SDS011;3647;48.792;9.802;2023-09-08T21:35:26;9.13;;;6.63;;
7211;SDS011;3647;48.792;9.802;2023-09-08T21:37:54;7.40;;;6.30;;
7211;SDS011;3647;48.792;9.802;2023-09-08T21:40:21;7.18;;;6.32;;
7211;SDS011;3647;48.792;9.802;2023-09-08T21:42:48;7.18;;;6.38;;
7211;SDS011;3647;48.792;9.802;2023-09-08T21:45:15;9.82;;;6.80;;
7211;SDS011;3647;48.792;9.802;2023-09-08T21:47:42;9.25;;;7.38;;
7211;SDS011;3647;48.792;9.802;2023-09-08T21:50:11;9.25;;;6.03;;
7211;SDS011;3647;48.792;9.802;2023-09-08T21:52:39;7.38;;;6.28;;
7211;SDS011;3647;48.792;9.802;2023-09-08T21:55:07;8.88;;;7.10;;
7211;SDS011;3647;48.792;9.802;2023-09-08T21:57:35;9.13;;;6.93;;
7211;SDS011;3647;48.792;9.802;2023-09-08T22:00:02;10.45;;;7.15;;
7211;SDS011;3647;48.792;9.802;2023-09-08T22:02:30;10.02;;;7.00;;
7211;SDS011;3647;48.792;9.802;2023-09-08T22:04:57;8.10;;;6.22;;
7211;SDS011;3647;48.792;9.802;2023-09-08T22:07:24;12.10;;;6.60;;
7211;SDS011;3647;48.792;9.802;2023-09-08T22:09:51;7.88;;;6.40;;
7211;SDS011;3647;48.792;9.802;2023-09-08T22:12:19;8.85;;;6.50;;
7211;SDS011;3647;48.792;9.802;2023-09-08T22:14:47;7.30;;;6.40;;
7211;SDS011;3647;48.792;9.802;2023-09-08T22:17:14;8.45;;;6.93;;
7211;SDS011;3647;48.792;9.802;2023-09-08T22:19:41;8.80;;;7.00;;
7211;SDS011;3647;48.792;9.802;2023-09-08T22:22:08;9.80;;;7.13;;
7211;SDS011;3647;48.792;9.802;2023-09-08T22:24:35;9.52;;;7.10;;
7211;SDS011;3647;48.792;9.802;2023-09-08T22:27:01;9.70;;;7.07;;
7211;SDS011;3647;48.792;9.802;2023-09-08T22:29:30;7.72;;;6.70;;
7211;SDS011;3647;48.792;9.802;2023-09-08T22:31:57;7.82;;;6.72;;
7211;SDS011;3647;48.792;9.802;2023-09-08T22:34:24;8.18;;;6.28;;
